Time;durP1;ratioP1;P1;durP2;ratioP2;P2;SDS_P1;SDS_P2;PMS_P1;PMS_P2;Temp;Humidity;BMP_temperature;BMP_pressure;BME280_temperature;BME280_humidity;BME280_pressure;Samples;Min_cycle;Max_cycle;Signal;HPM_P1;HPM_P2
2021/09/24 00:04:54;;;;;;;16.92;3.08;;;13.80;99.90;;;;;;12521410;28;20052;-36
2021/09/24 00:10:57;;;;;;;17.60;3.38;;;13.70;99.90;;;;;;12519445;28;20117;-35
2021/09/24 00:16:59;;;;;;;12.68;3.25;;;13.60;99.90;;;;;;12516322;28;20044;-36
2021/09/24 00:23:02;;;;;;;10.50;3.28;;;13.60;99.90;;;;;;12516587;28;20128;-35
2021/09/24 00:29:04;;;;;;;13.90;3.90;;;13.60;99.90;;;;;;12519423;28;20056;-39
2021/09/24 00:35:07;;;;;;;14.60;4.43;;;13.50;99.90;;;;;;12516954;28;20060;-40
2021/09/24 00:41:10;;;;;;;17.15;3.30;;;13.50;99.90;;;;;;12515952;28;20052;-40
2021/09/24 00:47:12;;;;;;;11.65;2.70;;;13.50;99.90;;;;;;12521550;28;20060;-39
2021/09/24 00:53:15;;;;;;;12.18;2.63;;;13.60;99.90;;;;;;12514582;28;20045;-40
2021/09/24 00:59:17;;;;;;;12.20;2.47;;;13.60;99.90;;;;;;12517135;28;20186;-39
2021/09/24 01:05:19;;;;;;;10.82;2.22;;;13.60;99.90;;;;;;12526024;28;20041;-40
2021/09/24 01:11:21;;;;;;;12.43;2.72;;;13.60;99.90;;;;;;12524633;28;20094;-39
2021/09/24 01:17:23;;;;;;;14.43;2.88;;;13.40;99.90;;;;;;12524012;28;20071;-35
2021/09/24 01:23:25;;;;;;;14.60;2.95;;;13.40;99.90;;;;;;12524924;28;20423;-37
2021/09/24 01:29:29;;;;;;;9.93;2.85;;;13.40;99.90;;;;;;12523062;28;20056;-39
2021/09/24 01:35:31;;;;;;;11.43;3.00;;;13.40;99.90;;;;;;12536240;28;20045;-35
2021/09/24 01:41:37;;;;;;;8.93;3.42;;;13.30;99.90;;;;;;12523394;28;20057;-39
2021/09/24 01:47:39;;;;;;;9.88;3.75;;;13.30;99.90;;;;;;12527709;28;20053;-39
2021/09/24 01:53:41;;;;;;;11.65;3.55;;;13.30;99.90;;;;;;12520445;28;20080;-41
2021/09/24 01:59:43;;;;;;;14.13;4.22;;;13.30;99.90;;;;;;12521344;28;20079;-39
2021/09/24 02:05:46;;;;;;;10.75;3.70;;;13.30;99.90;;;;;;12525220;28;20083;-39
2021/09/24 02:11:48;;;;;;;12.40;3.35;;;13.30;99.90;;;;;;12524681;28;20049;-40
2021/09/24 02:17:50;;;;;;;13.07;3.58;;;13.20;99.90;;;;;;12524563;28;20076;-36
2021/09/24 02:23:51;;;;;;;10.02;3.80;;;13.30;99.90;;;;;;12521171;28;20156;-41
2021/09/24 02:29:53;;;;;;;14.18;3.63;;;13.30;99.90;;;;;;12522214;28;20052;-35
2021/09/24 02:35:55;;;;;;;10.55;4.30;;;13.40;99.90;;;;;;12521362;28;20080;-35
2021/09/24 02:41:57;;;;;;;20.58;4.10;;;13.40;99.90;;;;;;12521504;28;20056;-39
2021/09/24 02:47:59;;;;;;;12.65;4.05;;;13.40;99.90;;;;;;12521752;28;20529;-40
2021/09/24 02:54:02;;;;;;;12.93;4.05;;;13.50;99.90;;;;;;12523587;28;20045;-39
2021/09/24 03:00:06;;;;;;;17.05;4.00;;;13.40;99.90;;;;;;12521997;28;20045;-39
2021/09/24 03:06:08;;;;;;;12.13;3.63;;;13.40;99.90;;;;;;12518106;28;20061;-35
2021/09/24 03:12:10;;;;;;;12.73;3.42;;;13.50;99.90;;;;;;12522213;28;20041;-35
2021/09/24 03:18:12;;;;;;;15.75;3.70;;;13.50;99.90;;;;;;12522641;28;20053;-35
2021/09/24 03:24:15;;;;;;;12.63;3.50;;;13.50;99.90;;;;;;12522300;28;20045;-39
2021/09/24 03:30:17;;;;;;;15.90;4.38;;;13.60;99.90;;;;;;12517438;28;20088;-41
2021/09/24 03:36:20;;;;;;;16.85;3.88;;;13.50;99.90;;;;;;12518611;28;20616;-41
2021/09/24 03:42:22;;;;;;;14.25;4.07;;;13.60;99.90;;;;;;12522465;28;20135;-41
2021/09/24 03:48:24;;;;;;;13.80;3.60;;;13.60;99.90;;;;;;12522390;28;20164;-40
2021/09/24 03:54:26;;;;;;;14.85;4.70;;;13.70;99.90;;;;;;12519011;28;20076;-36
2021/09/24 04:00:28;;;;;;;11.68;4.05;;;13.70;99.90;;;;;;12518599;28;20044;-36
2021/09/24 04:06:31;;;;;;;17.42;5.57;;;13.70;99.90;;;;;;12517594;28;20072;-39
2021/09/24 04:12:33;;;;;;;13.48;4.95;;;13.80;99.90;;;;;;12518157;28;20052;-36
2021/09/24 04:18:34;;;;;;;16.33;5.20;;;13.90;99.90;;;;;;12517319;28;20517;-41
2021/09/24 04:24:38;;;;;;;16.77;5.30;;;13.90;99.90;;;;;;12518087;28;20514;-39
2021/09/24 04:30:40;;;;;;;13.55;4.78;;;13.90;99.90;;;;;;12517892;28;20049;-39
2021/09/24 04:36:42;;;;;;;17.63;5.03;;;13.70;99.90;;;;;;12516402;28;20081;-39
2021/09/24 04:42:44;;;;;;;14.15;4.50;;;13.80;99.90;;;;;;12528034;28;20135;-39
2021/09/24 04:48:46;;;;;;;13.98;4.15;;;13.80;99.90;;;;;;12523248;28;20098;-35
2021/09/24 04:54:48;;;;;;;14.98;4.50;;;13.90;99.90;;;;;;12527552;28;20942;-35
2021/09/24 05:00:50;;;;;;;15.02;4.10;;;13.90;99.90;;;;;;12525353;28;20049;-37
2021/09/24 05:06:52;;;;;;;14.65;4.30;;;13.80;99.90;;;;;;12525369;28;20064;-36
2021/09/24 05:12:54;;;;;;;16.08;4.18;;;13.80;99.90;;;;;;12527913;28;20135;-36
2021/09/24 05:18:56;;;;;;;17.33;4.28;;;13.90;99.90;;;;;;12523412;28;20068;-39
2021/09/24 05:24:58;;;;;;;11.55;3.97;;;13.90;99.90;;;;;;12525317;28;20102;-35
2021/09/24 05:31:00;;;;;;;15.20;4.57;;;13.90;99.90;;;;;;12523542;28;20049;-39
2021/09/24 05:37:02;;;;;;;11.98;4.88;;;14.00;99.90;;;;;;12525898;28;20470;-39
2021/09/24 05:43:04;;;;;;;16.35;4.90;;;13.90;99.90;;;;;;12528080;28;20064;-39
2021/09/24 05:49:06;;;;;;;13.57;5.22;;;13.90;99.90;;;;;;12523304;28;20053;-35
2021/09/24 05:55:09;;;;;;;15.45;4.90;;;13.90;99.90;;;;;;12521552;28;20045;-42
2021/09/24 06:01:11;;;;;;;12.32;5.55;;;13.90;99.90;;;;;;12520916;28;20456;-35
2021/09/24 06:07:13;;;;;;;11.43;5.90;;;13.90;99.90;;;;;;12524930;28;20501;-39
2021/09/24 06:13:16;;;;;;;14.75;6.22;;;14.00;99.90;;;;;;12524291;28;20048;-35
2021/09/24 06:19:20;;;;;;;15.85;6.63;;;13.90;99.90;;;;;;12525431;28;20434;-35
2021/09/24 06:25:22;;;;;;;;;;;14.00;99.90;;;;;;12522334;28;20105;-35
2021/09/24 06:31:24;;;;;;;17.88;6.57;;;14.00;99.90;;;;;;12527396;28;19982;-36
2021/09/24 06:37:27;;;;;;;20.35;7.32;;;14.00;99.90;;;;;;12521983;28;20049;-39
2021/09/24 06:43:29;;;;;;;14.60;6.70;;;14.20;99.90;;;;;;12523720;28;20061;-39
2021/09/24 06:49:31;;;;;;;15.55;6.22;;;14.10;99.90;;;;;;12520994;28;20137;-36
2021/09/24 06:55:33;;;;;;;18.35;6.78;;;14.20;99.90;;;;;;12522694;28;20045;-35
2021/09/24 07:01:35;;;;;;;14.18;6.95;;;14.20;99.90;;;;;;12517917;28;20544;-35
2021/09/24 07:07:39;;;;;;;16.88;6.20;;;14.20;99.90;;;;;;12522905;28;20364;-35
2021/09/24 07:13:41;;;;;;;17.30;6.15;;;14.30;99.90;;;;;;12523438;28;20049;-39
2021/09/24 07:19:44;;;;;;;14.10;6.60;;;14.30;99.90;;;;;;12519001;28;20370;-40
2021/09/24 07:25:46;;;;;;;19.65;9.00;;;14.40;99.90;;;;;;12518493;28;20064;-39
2021/09/24 07:31:48;;;;;;;22.67;9.07;;;14.40;99.90;;;;;;12520094;28;20579;-41
2021/09/24 07:37:50;;;;;;;20.83;9.75;;;14.50;99.90;;;;;;12520505;28;20537;-35
2021/09/24 07:43:53;;;;;;;19.90;7.68;;;14.50;99.90;;;;;;12518515;28;20098;-35
2021/09/24 07:49:55;;;;;;;20.48;9.45;;;14.60;99.90;;;;;;12519399;28;20479;-35
2021/09/24 07:55:57;;;;;;;19.83;9.68;;;14.60;99.90;;;;;;12521325;28;20045;-39
2021/09/24 08:01:59;;;;;;;22.33;9.13;;;14.60;99.90;;;;;;12523221;28;20041;-35
2021/09/24 08:08:03;;;;;;;19.48;10.10;;;14.70;99.90;;;;;;12521438;28;20049;-35
2021/09/24 08:14:06;;;;;;;17.70;10.63;;;14.80;99.90;;;;;;12526148;28;20044;-40
2021/09/24 08:20:09;;;;;;;19.77;11.00;;;14.80;99.90;;;;;;12526465;28;20506;-35
2021/09/24 08:26:11;;;;;;;18.37;11.43;;;14.90;99.90;;;;;;12531072;28;20052;-39
2021/09/24 08:32:14;;;;;;;24.13;13.25;;;14.80;99.90;;;;;;12526849;28;20049;-36
2021/09/24 08:38:16;;;;;;;19.27;12.30;;;14.90;99.90;;;;;;12528787;28;20915;-39
2021/09/24 08:44:21;;;;;;;22.00;13.48;;;14.90;99.90;;;;;;12526166;28;20049;-35
2021/09/24 08:50:26;;;;;;;27.38;14.73;;;15.00;99.90;;;;;;12529372;28;20098;-41
2021/09/24 08:56:28;;;;;;;22.63;16.05;;;15.10;99.90;;;;;;12527712;28;20051;-37
2021/09/24 09:02:54;;;;;;;28.88;17.90;;;15.20;99.90;;;;;;12523765;28;20103;-39
2021/09/24 09:09:05;;;;;;;31.17;19.48;;;15.30;99.90;;;;;;12530165;28;20061;-40
2021/09/24 09:15:13;;;;;;;25.85;18.42;;;15.40;99.90;;;;;;12530367;28;20040;-38
2021/09/24 09:21:21;;;;;;;30.25;20.17;;;15.60;99.90;;;;;;12528251;28;20072;-35
2021/09/24 09:27:24;;;;;;;27.77;19.20;;;15.70;99.90;;;;;;12522984;28;20081;-39
2021/09/24 09:33:29;;;;;;;27.00;18.92;;;15.80;99.90;;;;;;12526805;28;20056;-36
2021/09/24 09:39:31;;;;;;;31.77;21.70;;;15.90;99.90;;;;;;12528300;28;20048;-35
2021/09/24 09:45:37;;;;;;;34.75;23.00;;;16.00;99.90;;;;;;12523166;28;20077;-40
2021/09/24 09:51:43;;;;;;;36.20;24.52;;;16.00;99.90;;;;;;12512479;28;20693;-35
2021/09/24 09:57:53;;;;;;;37.90;27.15;;;16.10;99.90;;;;;;12479540;28;20048;-36
2021/09/24 10:03:55;;;;;;;43.72;30.80;;;16.10;99.90;;;;;;12507438;28;20053;-39
2021/09/24 10:10:16;;;;;;;48.45;31.65;;;16.30;99.90;;;;;;12525191;28;20806;-35
2021/09/24 10:16:20;;;;;;;49.88;33.15;;;16.40;99.90;;;;;;12523379;28;20060;-37
2021/09/24 10:22:24;;;;;;;51.38;34.22;;;16.50;99.90;;;;;;12509122;28;20053;-35
2021/09/24 10:28:32;;;;;;;53.97;34.58;;;16.60;99.90;;;;;;12478525;28;20734;-39
2021/09/24 10:34:55;;;;;;;52.75;33.30;;;16.70;99.90;;;;;;12511429;28;20044;-36
2021/09/24 10:41:05;;;;;;;49.08;34.55;;;16.90;99.90;;;;;;12517513;28;20180;-35
2021/09/24 10:47:11;;;;;;;50.63;35.50;;;16.80;99.90;;;;;;12476041;28;20056;-36
2021/09/24 10:53:18;;;;;;;60.63;37.13;;;16.70;99.90;;;;;;12474604;28;20045;-39
2021/09/24 10:59:25;;;;;;;59.63;36.55;;;16.60;99.90;;;;;;12476011;28;20057;-39
2021/09/24 11:06:04;;;;;;;60.30;36.50;;;16.60;99.90;;;;;;12512018;28;20127;-39
2021/09/24 11:12:08;;;;;;;60.90;36.78;;;16.70;99.90;;;;;;12505958;28;20052;-35
2021/09/24 11:18:10;;;;;;;54.05;31.58;;;16.70;99.90;;;;;;12477483;28;20065;-36
2021/09/24 11:24:31;;;;;;;59.75;32.97;;;16.70;99.90;;;;;;12510365;28;20152;-38
2021/09/24 11:30:48;;;;;;;52.92;30.60;;;16.60;99.90;;;;;;12521041;28;20053;-39
2021/09/24 11:36:58;;;;;;;46.63;27.77;;;16.50;99.90;;;;;;12522169;28;20136;-36
2021/09/24 11:43:04;;;;;;;45.55;26.58;;;16.50;99.90;;;;;;12521880;28;20041;-39
2021/09/24 11:49:06;;;;;;;48.80;26.05;;;16.50;99.90;;;;;;12525593;28;20085;-39
2021/09/24 11:55:12;;;;;;;43.67;24.52;;;16.40;99.90;;;;;;12516577;28;20152;-39
2021/09/24 12:01:16;;;;;;;45.53;25.20;;;16.40;99.90;;;;;;12517400;28;20160;-35
2021/09/24 12:07:18;;;;;;;50.60;28.47;;;16.30;99.90;;;;;;12522281;28;20083;-39
2021/09/24 12:13:20;;;;;;;52.25;28.58;;;16.40;99.90;;;;;;12518583;28;20052;-35
2021/09/24 12:19:27;;;;;;;57.30;32.20;;;16.40;99.90;;;;;;12518412;28;20053;-39
2021/09/24 12:25:29;;;;;;;57.83;30.67;;;16.20;99.90;;;;;;12514850;28;20044;-35
2021/09/24 12:31:44;;;;;;;57.70;32.70;;;16.20;99.90;;;;;;12517933;28;20658;-39
2021/09/24 12:37:46;;;;;;;65.10;36.53;;;16.10;99.90;;;;;;12520681;28;20057;-35
2021/09/24 12:43:48;;;;;;;61.67;33.75;;;16.10;99.90;;;;;;12515263;28;20053;-40
2021/09/24 12:49:52;;;;;;;57.08;30.35;;;16.10;99.90;;;;;;12517899;28;20167;-36
2021/09/24 12:55:59;;;;;;;49.78;30.33;;;16.20;99.90;;;;;;12514735;28;20098;-35
2021/09/24 13:02:02;;;;;;;71.78;39.92;;;16.30;99.90;;;;;;12522103;28;20076;-38
2021/09/24 13:08:07;;;;;;;72.93;43.22;;;16.20;99.90;;;;;;12529427;28;20408;-36
2021/09/24 13:14:09;;;;;;;81.18;44.80;;;16.00;99.90;;;;;;12531192;28;20049;-36
2021/09/24 13:20:13;;;;;;;76.05;44.25;;;16.00;99.90;;;;;;12530849;28;20095;-36
2021/09/24 13:26:18;;;;;;;68.25;41.75;;;16.00;99.90;;;;;;12529625;28;20052;-36
2021/09/24 13:32:21;;;;;;;61.83;39.38;;;16.10;99.90;;;;;;12524814;28;20055;-36
2021/09/24 13:38:24;;;;;;;62.13;38.88;;;16.10;99.90;;;;;;12525057;28;20049;-35
2021/09/24 13:44:27;;;;;;;55.35;34.15;;;16.20;99.90;;;;;;12467038;28;20499;-39
2021/09/24 13:50:29;;;;;;;56.63;36.17;;;16.20;99.90;;;;;;12472496;28;20081;-39
2021/09/24 13:56:32;;;;;;;50.90;31.38;;;16.30;99.90;;;;;;12481631;28;20195;-39
2021/09/24 14:02:34;;;;;;;44.72;29.58;;;16.40;99.90;;;;;;12499878;28;20080;-39
2021/09/24 14:08:38;;;;;;;48.28;29.33;;;16.40;99.90;;;;;;12527738;28;20045;-35
2021/09/24 14:14:40;;;;;;;43.08;28.33;;;16.50;99.90;;;;;;12525491;28;20101;-35
2021/09/24 14:20:42;;;;;;;44.88;28.80;;;16.60;99.90;;;;;;12536322;28;20644;-35
2021/09/24 14:26:44;;;;;;;47.15;29.95;;;16.60;99.90;;;;;;12481806;28;20159;-35
2021/09/24 14:32:47;;;;;;;46.25;29.83;;;16.50;99.90;;;;;;12500958;28;20040;-39
2021/09/24 14:38:49;;;;;;;48.35;30.45;;;16.50;99.90;;;;;;12526243;28;20068;-39
2021/09/24 14:44:53;;;;;;;47.70;30.88;;;16.50;99.90;;;;;;12526352;28;20053;-40
2021/09/24 14:50:55;;;;;;;46.05;30.50;;;16.70;99.90;;;;;;12520443;28;20045;-38
2021/09/24 14:56:57;;;;;;;42.90;31.85;;;16.80;99.90;;;;;;12521635;28;20072;-39
2021/09/24 15:02:59;;;;;;;44.92;30.38;;;16.80;99.90;;;;;;12524741;28;20058;-38
2021/09/24 15:09:02;;;;;;;46.97;31.50;;;16.90;99.90;;;;;;12522387;28;20059;-37
2021/09/24 15:15:05;;;;;;;43.25;30.85;;;17.00;99.90;;;;;;12525460;28;20238;-35
2021/09/24 15:21:08;;;;;;;37.83;28.43;;;17.00;99.90;;;;;;12518252;28;20076;-35
2021/09/24 15:27:10;;;;;;;35.63;27.77;;;17.00;99.90;;;;;;12524703;28;20053;-40
2021/09/24 15:33:14;;;;;;;37.00;27.30;;;17.10;99.90;;;;;;12523482;28;20132;-36
2021/09/24 15:39:16;;;;;;;32.80;25.60;;;17.10;99.90;;;;;;12523623;28;20414;-40
2021/09/24 15:45:19;;;;;;;29.67;22.42;;;17.20;99.90;;;;;;12521080;28;20057;-36
2021/09/24 15:51:21;;;;;;;27.77;22.15;;;17.20;99.90;;;;;;12521899;28;20088;-39
2021/09/24 15:57:23;;;;;;;28.23;19.67;;;17.30;99.90;;;;;;12523886;28;20568;-37
2021/09/24 16:03:25;;;;;;;22.55;16.90;;;17.50;99.90;;;;;;12521300;28;20079;-35
2021/09/24 16:09:28;;;;;;;21.27;16.75;;;17.60;99.90;;;;;;12525698;28;20062;-39
2021/09/24 16:15:30;;;;;;;20.83;16.60;;;17.40;99.90;;;;;;12524550;28;20041;-39
2021/09/24 16:21:32;;;;;;;20.35;14.90;;;17.30;99.90;;;;;;12522035;28;20402;-36
2021/09/24 16:27:36;;;;;;;16.17;12.93;;;17.30;99.90;;;;;;12520873;28;20053;-39
2021/09/24 16:33:38;;;;;;;17.17;13.02;;;17.30;99.90;;;;;;12523036;28;20618;-36
2021/09/24 16:39:42;;;;;;;15.63;12.65;;;17.20;99.90;;;;;;12531720;28;20049;-39
2021/09/24 16:45:45;;;;;;;16.67;13.77;;;17.20;99.90;;;;;;12531250;28;20071;-38
2021/09/24 16:51:50;;;;;;;19.83;15.10;;;17.10;99.90;;;;;;12532557;28;20052;-39
2021/09/24 16:57:52;;;;;;;22.23;16.08;;;17.10;99.90;;;;;;12532425;28;20048;-35
2021/09/24 17:03:54;;;;;;;20.50;15.65;;;17.00;99.90;;;;;;12523776;28;20472;-35
2021/09/24 17:09:57;;;;;;;19.10;16.02;;;17.00;99.90;;;;;;12532594;28;20057;-40
2021/09/24 17:16:00;;;;;;;19.83;16.52;;;16.90;99.90;;;;;;12530548;28;20052;-42
2021/09/24 17:22:03;;;;;;;24.02;17.70;;;16.80;99.90;;;;;;12526087;28;20045;-35
2021/09/24 17:28:12;;;;;;;24.73;17.30;;;16.70;99.90;;;;;;12533095;28;20049;-35
2021/09/24 17:34:23;;;;;;;22.02;16.70;;;16.70;99.90;;;;;;12528964;28;20033;-39
2021/09/24 17:40:34;;;;;;;21.33;17.45;;;16.60;99.90;;;;;;12527099;28;20569;-39
2021/09/24 17:46:37;;;;;;;20.75;16.83;;;16.50;99.90;;;;;;12528346;28;20064;-42
2021/09/24 17:52:40;;;;;;;20.58;17.27;;;16.40;99.90;;;;;;12526959;28;20248;-36
2021/09/24 17:58:42;;;;;;;23.00;17.33;;;16.40;99.90;;;;;;12527801;28;20535;-35
2021/09/24 18:04:44;;;;;;;22.75;18.23;;;16.40;99.90;;;;;;12525139;28;20085;-35
2021/09/24 18:10:46;;;;;;;22.92;17.33;;;16.40;99.90;;;;;;12525736;28;20540;-39
2021/09/24 18:16:49;;;;;;;21.15;16.55;;;16.40;99.90;;;;;;12518925;28;20430;-35
2021/09/24 18:22:52;;;;;;;21.77;15.48;;;16.50;99.90;;;;;;12522676;28;20053;-36
2021/09/24 18:28:54;;;;;;;19.77;14.20;;;16.50;99.90;;;;;;12522720;28;20049;-35
2021/09/24 18:34:56;;;;;;;19.88;13.65;;;16.60;99.90;;;;;;12523316;28;20041;-41
2021/09/24 18:40:59;;;;;;;18.02;12.60;;;16.60;99.90;;;;;;12524902;28;20516;-36
2021/09/24 18:47:01;;;;;;;14.43;10.77;;;16.60;99.90;;;;;;12518330;28;20513;-36
2021/09/24 18:53:03;;;;;;;17.58;11.77;;;16.70;99.90;;;;;;12525731;28;20140;-38
2021/09/24 18:59:05;;;;;;;12.98;10.52;;;16.70;99.90;;;;;;12521481;28;20386;-36
2021/09/24 19:05:07;;;;;;;15.60;10.20;;;16.60;99.90;;;;;;12524190;28;20052;-35
2021/09/24 19:11:09;;;;;;;14.80;9.95;;;16.70;99.90;;;;;;12521306;28;20153;-39
2021/09/24 19:17:11;;;;;;;15.50;10.80;;;16.60;99.90;;;;;;12521791;28;20488;-39
2021/09/24 19:23:13;;;;;;;14.10;9.88;;;16.50;99.90;;;;;;12523371;28;20166;-36
2021/09/24 19:29:15;;;;;;;15.80;9.45;;;16.40;99.90;;;;;;12522462;28;20096;-39
2021/09/24 19:35:17;;;;;;;13.73;8.75;;;16.50;99.90;;;;;;12519639;28;20414;-35
2021/09/24 19:41:21;;;;;;;14.93;9.55;;;16.40;99.90;;;;;;12519285;28;20048;-39
2021/09/24 19:47:23;;;;;;;12.80;8.27;;;16.40;99.90;;;;;;12519600;28;20045;-41
2021/09/24 19:53:26;;;;;;;16.35;9.07;;;16.20;99.90;;;;;;12518311;28;20106;-39
2021/09/24 19:59:28;;;;;;;17.55;9.25;;;16.20;99.90;;;;;;12518204;28;20090;-39
2021/09/24 20:05:30;;;;;;;14.95;9.15;;;16.20;99.90;;;;;;12517869;28;20089;-41
2021/09/24 20:11:32;;;;;;;12.43;8.73;;;16.20;99.90;;;;;;12518229;28;20510;-35
2021/09/24 20:17:33;;;;;;;15.35;9.13;;;16.20;99.90;;;;;;12517575;28;21476;-40
2021/09/24 20:23:35;;;;;;;13.55;8.93;;;16.20;99.90;;;;;;12520108;28;20049;-38
2021/09/24 20:29:37;;;;;;;13.27;9.50;;;16.20;99.90;;;;;;12518086;28;20079;-39
2021/09/24 20:35:39;;;;;;;13.18;8.88;;;16.20;99.90;;;;;;12517583;28;20399;-39
2021/09/24 20:41:41;;;;;;;13.73;8.95;;;16.30;99.90;;;;;;12519100;28;20057;-36
2021/09/24 20:47:44;;;;;;;13.98;9.20;;;16.20;99.90;;;;;;12516720;28;20570;-35
2021/09/24 20:53:46;;;;;;;12.95;8.93;;;16.10;99.90;;;;;;12517510;28;20056;-40
2021/09/24 20:59:47;;;;;;;18.88;9.75;;;16.10;99.90;;;;;;12517060;28;20048;-35
2021/09/24 21:05:50;;;;;;;16.70;9.85;;;16.10;99.90;;;;;;12520631;28;20135;-39
2021/09/24 21:11:52;;;;;;;14.55;9.40;;;16.10;99.90;;;;;;12514079;28;20110;-39
2021/09/24 21:17:57;;;;;;;14.02;8.55;;;16.20;99.90;;;;;;12517788;28;20053;-39
2021/09/24 21:23:59;;;;;;;13.73;9.10;;;16.30;99.90;;;;;;12527829;28;20049;-38
2021/09/24 21:30:01;;;;;;;12.82;8.68;;;16.30;99.90;;;;;;12525108;28;20102;-40
2021/09/24 21:36:03;;;;;;;12.65;8.65;;;16.40;99.90;;;;;;12525785;28;20562;-36
2021/09/24 21:42:05;;;;;;;13.32;8.85;;;16.40;99.90;;;;;;12522987;28;20041;-36
2021/09/24 21:48:07;;;;;;;13.65;8.90;;;16.40;99.90;;;;;;12524820;28;20114;-36
2021/09/24 21:54:09;;;;;;;14.05;8.50;;;16.50;99.90;;;;;;12525600;28;20049;-39
2021/09/24 22:00:15;;;;;;;16.13;8.85;;;16.40;99.90;;;;;;12522540;28;20060;-39
2021/09/24 22:06:17;;;;;;;12.02;7.70;;;16.40;99.90;;;;;;12478551;28;20087;-39
2021/09/24 22:12:19;;;;;;;13.82;8.75;;;16.40;99.90;;;;;;12493853;28;20117;-40
2021/09/24 22:18:21;;;;;;;14.35;8.57;;;16.40;99.90;;;;;;12521751;28;20057;-36
2021/09/24 22:24:23;;;;;;;15.82;8.82;;;16.50;99.90;;;;;;12491320;28;20489;-35
2021/09/24 22:30:27;;;;;;;15.48;8.65;;;16.40;99.90;;;;;;12478280;28;20050;-39
2021/09/24 22:36:29;;;;;;;13.38;8.63;;;16.40;99.90;;;;;;12524975;28;20567;-39
2021/09/24 22:42:31;;;;;;;12.63;9.07;;;16.40;99.90;;;;;;12521048;28;20053;-41
2021/09/24 22:48:33;;;;;;;15.45;8.63;;;16.30;99.90;;;;;;12522349;28;20053;-39
2021/09/24 22:54:34;;;;;;;13.48;8.60;;;16.30;99.90;;;;;;12485414;28;20559;-36
2021/09/24 23:00:36;;;;;;;13.57;10.20;;;16.20;99.90;;;;;;12470364;28;20103;-35
2021/09/24 23:06:38;;;;;;;14.80;9.77;;;16.20;99.90;;;;;;12473794;28;20049;-36
2021/09/24 23:12:40;;;;;;;13.68;9.27;;;16.20;99.90;;;;;;12493590;28;20060;-35
2021/09/24 23:18:42;;;;;;;13.30;9.98;;;16.20;99.90;;;;;;12523181;28;20151;-36
2021/09/24 23:24:44;;;;;;;15.45;10.82;;;16.20;99.90;;;;;;12484818;28;20115;-36
2021/09/24 23:30:46;;;;;;;15.82;10.75;;;16.10;99.90;;;;;;12478566;28;20049;-36
2021/09/24 23:36:48;;;;;;;15.05;10.75;;;16.20;99.90;;;;;;12519400;28;20060;-35
2021/09/24 23:42:50;;;;;;;12.93;10.50;;;16.10;99.90;;;;;;12519390;28;20087;-40
2021/09/24 23:48:51;;;;;;;16.67;10.85;;;16.10;99.90;;;;;;12525182;28;20053;-39
2021/09/24 23:54:54;;;;;;;15.82;10.90;;;16.10;99.90;;;;;;12481658;28;20094;-40
